M I D A S
Marine Information and Data Acquisition System
Tripno 2204 of the Zeeleeuw from 2011-10-24 11:38:50 to 2011-10-24 13:53:11
Back to CruiseResearch ActivitiesStationsMapUnderway DataData graphs

EquipmentUnitsComment
TimeDGPSUTC
LatitudeDGPSDM.mWGS84
LongitudeDGPSDM.mWGS84
HeadingGyrodeg 
SOGDGPSknotsSpeed over ground
COGDGPSdegCourse over ground
DepthEcho soundermeters200 kHz
Missing or incorrect values are displayed as -999
Navigation data collected by the RV Zeeleeuw from 2011-10-24 07:16:37 to 2011-10-24 14:01:22
Time Latitude Longitude Heading SOG COG Depth
2011-10-24 07:17:43 51°13.632 2°56.017 124.1 -999 217 -999
2011-10-24 07:18:42 51°13.632 2°56.017 123.8 0.1 27 -999
2011-10-24 07:19:42 51°13.633 2°56.017 123.8 0.1 22 -999
2011-10-24 07:20:43 51°13.632 2°56.017 124.2 -999 19 -999
2011-10-24 07:21:42 51°13.632 2°56.017 123.7 -999 11 -999
2011-10-24 07:22:42 51°13.633 2°56.017 123.5 -999 212 -999
2011-10-24 07:23:43 51°13.633 2°56.016 123.8 -999 207 -999
2011-10-24 07:24:42 51°13.635 2°56.016 124.2 -999 26 -999
2011-10-24 07:25:42 51°13.635 2°56.016 124 -999 201 -999
2011-10-24 07:26:42 51°13.632 2°56.019 123.8 -999 32 -999
2011-10-24 07:27:43 51°13.632 2°56.02 123.8 -999 356 -999
2011-10-24 07:28:43 51°13.632 2°56.019 123.8 -999 237 -999
2011-10-24 07:29:42 51°13.631 2°56.019 123.8 -999 219 -999
2011-10-24 07:30:42 51°13.631 2°56.019 123.9 -999 28 -999
2011-10-24 07:31:42 51°13.631 2°56.02 124 0.1 209 -999
2011-10-24 07:32:42 51°13.631 2°56.021 123.9 -999 12 -999
2011-10-24 07:33:42 51°13.631 2°56.02 124.3 -999 103 -999
2011-10-24 07:34:43 51°13.631 2°56.02 123.9 -999 142 8.8
2011-10-24 07:35:43 51°13.632 2°56.02 123.9 -999 23 -999
2011-10-24 07:36:42 51°13.633 2°56.02 123.9 -999 37 -999
2011-10-24 07:37:43 51°13.632 2°56.019 123.6 -999 13 -999
2011-10-24 07:38:43 51°13.633 2°56.021 123.8 -999 16 -999
2011-10-24 07:39:42 51°13.633 2°56.02 124.1 -999 196 8.7
2011-10-24 07:40:43 51°13.633 2°56.022 123.9 -999 190 -999
2011-10-24 07:41:42 51°13.633 2°56.021 124 -999 64 -999
2011-10-24 07:42:42 51°13.633 2°56.019 124.9 -999 45 -999
2011-10-24 07:43:42 51°13.632 2°56.019 120.5 -999 184 -999
2011-10-24 07:44:42 51°13.63 2°56.018 106.8 0.1 241 8.6
2011-10-24 07:45:42 51°13.637 2°55.981 103.8 2.4 286 -999
2011-10-24 07:46:42 51°13.651 2°55.907 110.2 3.3 289 -999
2011-10-24 07:47:42 51°13.673 2°55.82 109.5 3.7 291 -999
2011-10-24 07:48:42 51°13.689 2°55.742 94.7 1.5 293 13.5
2011-10-24 07:49:40 51°13.71 2°55.753 29.9 1 11 13.4
2011-10-24 07:50:41 51°13.703 2°55.743 7.3 0.8 221 -999
2011-10-24 07:51:42 51°13.727 2°55.721 331.9 3.2 330 13.4
2011-10-24 07:51:53 51°13.738 2°55.712 335.5 -999 154 13.3
2011-10-24 07:53:42 51°13.738 2°55.712 335 -999 332 12.8
2011-10-24 07:54:42 51°13.738 2°55.712 337.6 -999 152 12.4
2011-10-24 07:55:42 51°13.738 2°55.712 332.8 -999 134 12.5
2011-10-24 07:56:42 51°14.359 2°55.225 329.5 9 328 12.4
2011-10-24 07:57:40 51°14.485 2°55.107 330 8.9 329 13
2011-10-24 07:58:39 51°14.611 2°54.999 325.5 8.8 332 13.2
2011-10-24 07:59:39 51°14.733 2°54.867 316.6 8.8 322 12.7
2011-10-24 08:00:39 51°14.849 2°54.723 316.5 8.9 323 13
2011-10-24 08:01:39 51°14.961 2°54.585 315.1 7.2 321 12.6
2011-10-24 08:02:39 51°15.038 2°54.485 314.4 5.3 322 12.6
2011-10-24 08:03:39 51°15.103 2°54.409 317.4 4.6 327 12.4
2011-10-24 08:04:39 51°15.165 2°54.347 318.6 4.3 329 11.9
2011-10-24 08:05:39 51°15.224 2°54.289 315.8 4 325 11.9
2011-10-24 08:06:39 51°15.272 2°54.22 302.7 3.8 313 12
2011-10-24 08:07:39 51°15.312 2°54.143 297.7 3.8 307 13.4
2011-10-24 08:08:39 51°15.354 2°54.072 318 3.6 333 13.7
2011-10-24 08:09:39 51°15.414 2°54.037 325.4 4 335 12.9
2011-10-24 08:10:39 51°15.477 2°53.988 326.9 4.4 337 12.4
2011-10-24 08:11:39 51°15.545 2°53.941 322.8 4.4 333 12.6
2011-10-24 08:12:39 51°15.611 2°53.885 319 4.4 329 12.7
2011-10-24 08:13:39 51°15.669 2°53.819 308.6 4.2 320 12.8
2011-10-24 08:14:39 51°15.725 2°53.759 330.1 4.1 343 13.1
2011-10-24 08:15:39 51°15.793 2°53.752 2.3 4.1 16 13.1
2011-10-24 08:16:39 51°15.844 2°53.813 53.2 3.8 54 13
2011-10-24 08:17:39 51°15.874 2°53.906 69.4 4.2 64 13
2011-10-24 08:18:39 51°15.908 2°54.003 65.3 4.2 60 12.9
2011-10-24 08:19:39 51°15.943 2°54.096 62.6 4.1 58 12.8
2011-10-24 08:20:39 51°15.98 2°54.188 59.7 4.1 57 12.9
2011-10-24 08:21:39 51°16.014 2°54.275 66.8 3.6 60 12.8
2011-10-24 08:22:39 51°16.039 2°54.358 75.6 3.4 67 12.9
2011-10-24 08:23:39 51°16.055 2°54.439 92.3 3 78 12.9
2011-10-24 08:24:39 51°16.07 2°54.519 75.1 3.3 63 13
2011-10-24 08:25:39 51°16.106 2°54.597 50.1 3.9 50 13
2011-10-24 08:26:39 51°16.142 2°54.684 62.8 4 59 13.1
2011-10-24 08:27:39 51°16.177 2°54.776 61.9 4.2 58 13.1
2011-10-24 08:28:39 51°16.214 2°54.87 61.8 4.2 58 13.2
2011-10-24 08:29:39 51°16.252 2°54.967 61.8 4.3 58 13
2011-10-24 08:30:39 51°16.29 2°55.063 61 4.3 58 12.9
2011-10-24 08:31:39 51°16.329 2°55.162 61.5 4.4 58 13.1
2011-10-24 08:32:39 51°16.369 2°55.26 59.5 4.4 56 13.2
2011-10-24 08:33:39 51°16.411 2°55.357 59.4 4.5 56 13.1
2011-10-24 08:34:39 51°16.452 2°55.456 58.6 4.5 55 12.6
2011-10-24 08:35:39 51°16.494 2°55.556 63.2 4.5 59 12.7
2011-10-24 08:36:39 51°16.526 2°55.659 77.7 4.2 69 12.6
2011-10-24 08:37:39 51°16.539 2°55.759 106.1 3.5 88 12.8
2011-10-24 08:38:39 51°16.529 2°55.835 150.5 2.4 120 12.4
2011-10-24 08:39:39 51°16.503 2°55.885 161.6 2.5 134 12.4
2011-10-24 08:40:39 51°16.473 2°55.938 156.4 2.7 130 12.4
2011-10-24 08:41:39 51°16.443 2°55.998 151.8 3.1 127 12.2
2011-10-24 08:42:39 51°16.409 2°56.067 153.7 3.3 132 12.3
2011-10-24 08:43:39 51°16.368 2°56.114 177.5 2.9 156 12.2
2011-10-24 08:44:39 51°16.324 2°56.149 172.8 3.1 150 12.4
2011-10-24 08:45:39 51°16.28 2°56.18 188.1 2.8 166 12.3
2011-10-24 08:46:39 51°16.234 2°56.198 185.2 2.9 163 12.3
2011-10-24 08:47:39 51°16.189 2°56.211 198.8 2.6 183 12.2
2011-10-24 08:48:39 51°16.155 2°56.177 232.9 2.7 229 12.2
2011-10-24 08:49:39 51°16.113 2°56.128 217.9 3.5 214 12.1
2011-10-24 08:50:39 51°16.076 2°56.056 228 3.6 225 12.2
2011-10-24 08:51:39 51°16.033 2°55.987 234.8 3.7 239 12.1
2011-10-24 08:52:39 51°16.008 2°55.897 233.8 3.6 233 12.3
2011-10-24 08:53:39 51°15.977 2°55.815 246.9 3.7 250 12.3
2011-10-24 08:54:39 51°15.94 2°55.737 230.9 3.7 233 12.2
2011-10-24 08:55:39 51°15.907 2°55.655 229.2 3.6 230 12.2
2011-10-24 08:56:39 51°15.873 2°55.574 233.4 3.8 233 12.2
2011-10-24 08:57:39 51°15.839 2°55.488 239.3 3.8 240 12.2
2011-10-24 08:58:39 51°15.804 2°55.403 236.7 3.9 236 12.3
2011-10-24 08:59:39 51°15.768 2°55.317 236 3.9 239 12.2
2011-10-24 09:00:39 51°15.735 2°55.226 236.9 4 239 12.2
2011-10-24 09:01:39 51°15.702 2°55.137 236.8 3.8 241 12.2
2011-10-24 09:02:39 51°15.672 2°55.05 237.8 3.7 241 12.3
2011-10-24 09:03:39 51°15.642 2°54.962 238.9 3.7 242 12.3
2011-10-24 09:04:39 51°15.613 2°54.874 236.2 3.7 239 12.2
2011-10-24 09:05:39 51°15.581 2°54.79 235.2 3.7 240 12.2
2011-10-24 09:06:39 51°15.549 2°54.706 235.2 3.7 239 12.3
2011-10-24 09:07:39 51°15.517 2°54.623 234.9 3.7 239 12.2
2011-10-24 09:08:39 51°15.487 2°54.538 237 3.7 241 12.3
2011-10-24 09:09:39 51°15.456 2°54.453 233.2 3.7 236 12.2
2011-10-24 09:10:39 51°15.42 2°54.376 229.2 3.6 231 12.3
2011-10-24 09:11:39 51°15.383 2°54.299 232.3 3.7 237 12.1
2011-10-24 09:12:39 51°15.349 2°54.216 233.6 3.7 237 12.3
2011-10-24 09:13:39 51°15.316 2°54.131 235 3.8 239 14.3
2011-10-24 09:14:39 51°15.284 2°54.043 233.8 3.8 237 14.3
2011-10-24 09:15:39 51°15.246 2°53.961 230.5 3.8 234 12.2
2011-10-24 09:16:39 51°15.21 2°53.879 233.8 3.8 238 12.4
2011-10-24 09:17:39 51°15.179 2°53.79 237.3 3.9 241 12.7
2011-10-24 09:18:39 51°15.147 2°53.7 235.7 3.9 239 12.7
2011-10-24 09:19:39 51°15.114 2°53.613 234.4 3.8 238 12.7
2011-10-24 09:20:39 51°15.078 2°53.529 232.1 3.8 235 12.7
2011-10-24 09:21:39 51°15.045 2°53.442 236.7 3.9 241 12.7
2011-10-24 09:22:39 51°15.015 2°53.351 235.8 3.8 240 12.7
2011-10-24 09:23:39 51°14.983 2°53.269 233 3.4 236 12.8
2011-10-24 09:24:39 51°14.951 2°53.195 232.6 3.4 237 12.7
2011-10-24 09:25:39 51°14.922 2°53.118 235.1 3.3 241 12.7
2011-10-24 09:26:39 51°14.895 2°53.04 234.5 3.3 239 12.8
2011-10-24 09:27:39 51°14.866 2°52.97 229.9 3.2 235 12.7
2011-10-24 09:28:39 51°14.836 2°52.899 232.4 3.2 236 12.6
2011-10-24 09:29:39 51°14.808 2°52.824 234.5 3.3 238 12.6
2011-10-24 09:30:39 51°14.78 2°52.749 234.5 3.3 240 12.5
2011-10-24 09:31:39 51°14.75 2°52.676 229.6 3.3 234 12.5
2011-10-24 09:32:39 51°14.719 2°52.605 230.7 3.3 236 12.5
2011-10-24 09:33:39 51°14.689 2°52.532 233.4 3.3 240 12.3
2011-10-24 09:34:39 51°14.662 2°52.454 235.4 3.3 242 12.3
2011-10-24 09:35:39 51°14.636 2°52.374 236.6 3.4 242 12.3
2011-10-24 09:36:39 51°14.608 2°52.298 233.1 3.3 238 12.2
2011-10-24 09:37:39 51°14.58 2°52.222 233.9 3.4 239 12.2
2011-10-24 09:38:39 51°14.548 2°52.149 229.4 3.3 234 12.2
2011-10-24 09:39:39 51°14.517 2°52.076 233.3 3.3 239 12.1
2011-10-24 09:40:39 51°14.494 2°51.995 241.3 3.4 250 12
2011-10-24 09:41:39 51°14.474 2°51.907 243.5 3.5 252 12.1
2011-10-24 09:42:39 51°14.49 2°51.763 298.1 8.2 316 12.2
2011-10-24 09:43:39 51°14.633 2°51.825 48.9 11.2 53 12.5
2011-10-24 09:44:39 51°14.694 2°52.14 85 13 82 12.4
2011-10-24 09:45:39 51°14.702 2°52.486 93 13 89 12.2
2011-10-24 09:46:39 51°14.714 2°52.83 84.7 13.1 80 12
2011-10-24 09:47:39 51°14.759 2°53.172 78.4 13.2 78 12.1
2011-10-24 09:48:39 51°14.811 2°53.513 78.9 13.2 76 12.1
2011-10-24 09:49:39 51°14.852 2°53.855 82.6 13.1 82 12
2011-10-24 09:50:39 51°14.838 2°54.194 102.4 12.5 100 12.1
2011-10-24 09:51:39 51°14.782 2°54.499 113.7 11.9 109 13.5
2011-10-24 09:52:39 51°14.697 2°54.776 126.9 11.4 124 14
2011-10-24 09:53:39 51°14.573 2°54.996 139 11.1 135 14.5
2011-10-24 09:54:39 51°14.426 2°55.15 145.5 9.5 150 13.5
2011-10-24 09:55:39 51°14.304 2°55.268 146.4 8.2 150 13.6
2011-10-24 09:56:39 51°14.19 2°55.371 148.3 6.7 153 13.5
2011-10-24 09:57:39 51°14.101 2°55.434 154.4 5.6 158 13.5
2011-10-24 09:58:39 51°14.016 2°55.491 153 5.5 157 13.9
2011-10-24 09:59:39 51°13.929 2°55.549 153.6 5.6 156 14.5
2011-10-24 10:00:38 51°13.845 2°55.609 152.4 3.3 156 13.8
2011-10-24 10:01:39 51°13.769 2°55.687 137.2 3.7 141 13.9
2011-10-24 10:01:42 51°13.766 2°55.692 127.2 -999 138 15.2
2011-10-24 10:03:39 51°13.683 2°55.848 123 3.1 125 12.5
2011-10-24 10:04:39 51°13.656 2°55.912 119.1 2.6 120 14.2
2011-10-24 10:05:39 51°13.642 2°55.981 102.5 2.9 101 11.1
2011-10-24 10:06:39 51°13.638 2°56.017 121.2 0.5 133 9.8
2011-10-24 10:07:39 51°13.636 2°56.018 123.3 -999 336 9.9
2011-10-24 10:08:39 51°13.637 2°56.018 124.9 -999 10 10.2
2011-10-24 10:09:39 51°13.637 2°56.018 125 -999 89 9.9
2011-10-24 10:10:39 51°13.637 2°56.019 123.5 -999 222 10
2011-10-24 10:11:39 51°13.636 2°56.019 123.5 -999 155 10.2
2011-10-24 10:12:39 51°13.635 2°56.02 123.5 -999 165 10.1
2011-10-24 10:13:39 51°13.635 2°56.02 123.5 0.1 334 10.2
2011-10-24 10:14:39 51°13.635 2°56.021 123.9 -999 310 10.1
2011-10-24 10:15:39 51°13.635 2°56.021 123 -999 38 10.2
2011-10-24 10:16:39 51°13.635 2°56.02 123.5 -999 237 10.2
2011-10-24 10:17:39 51°13.635 2°56.02 123.7 -999 212 10.1
2011-10-24 10:18:39 51°13.636 2°56.019 123.2 -999 32 10.3
2011-10-24 10:19:39 51°13.637 2°56.02 123.1 -999 139 10.2
2011-10-24 10:20:39 51°13.637 2°56.019 123.3 -999 164 10.1
2011-10-24 10:21:39 51°13.637 2°56.019 123.3 -999 219 10.1
2011-10-24 10:22:39 51°13.637 2°56.019 123.2 -999 203 10.3
2011-10-24 10:23:39 51°13.636 2°56.019 123.4 -999 182 10.1
2011-10-24 10:24:39 51°13.636 2°56.018 123.5 -999 227 10.2
2011-10-24 10:25:39 51°13.635 2°56.018 123.5 0.1 180 10.1
2011-10-24 10:26:39 51°13.635 2°56.019 123.4 -999 168 10.2
2011-10-24 10:27:39 51°13.635 2°56.02 123.5 -999 180 10.2
2011-10-24 10:28:39 51°13.635 2°56.02 123.5 -999 172 10.2
2011-10-24 10:29:39 51°13.634 2°56.019 123.4 -999 217 10.2
2011-10-24 10:30:39 51°13.635 2°56.019 123.4 -999 12 10
2011-10-24 10:31:39 51°13.634 2°56.019 123.5 -999 179 10.2
2011-10-24 10:32:39 51°13.635 2°56.02 123.7 -999 260 10.2
2011-10-24 10:33:39 51°13.635 2°56.02 123.7 -999 212 10.1
2011-10-24 10:34:39 51°13.636 2°56.021 123.7 -999 356 10.1
2011-10-24 10:35:39 51°13.635 2°56.022 123.7 -999 200 10
2011-10-24 10:36:39 51°13.635 2°56.022 123.8 -999 248 10.1
2011-10-24 10:37:39 51°13.635 2°56.021 123.8 -999 238 10.3
2011-10-24 10:38:39 51°13.634 2°56.02 123.7 -999 50 10.1
2011-10-24 10:39:39 51°13.634 2°56.021 123.5 -999 273 10
2011-10-24 10:40:39 51°13.634 2°56.021 123.5 -999 31 10.2
2011-10-24 10:41:39 51°13.635 2°56.021 123.5 -999 209 10.1
2011-10-24 10:42:39 51°13.635 2°56.019 123.6 -999 279 10
2011-10-24 10:43:39 51°13.635 2°56.019 123.6 -999 357 10.1
2011-10-24 10:44:39 51°13.636 2°56.019 123.6 -999 183 10.1
2011-10-24 10:45:39 51°13.636 2°56.019 123.6 0.1 196 10
2011-10-24 10:46:39 51°13.636 2°56.018 123.6 0.1 205 10
2011-10-24 10:47:39 51°13.638 2°56.019 123.7 -999 12 10.1
2011-10-24 10:48:39 51°13.636 2°56.019 123.7 -999 233 10
2011-10-24 10:49:39 51°13.637 2°56.019 123.7 -999 355 10
2011-10-24 10:50:39 51°13.638 2°56.019 123.7 -999 358 9.9
2011-10-24 10:51:38 51°13.636 2°56.019 123.9 -999 285 9.9
2011-10-24 10:52:39 51°13.638 2°56.019 123.8 -999 217 9.9
2011-10-24 10:53:39 51°13.637 2°56.019 123.6 -999 166 10
2011-10-24 10:54:39 51°13.639 2°56.018 123.6 -999 301 10.1
2011-10-24 10:55:38 51°13.639 2°56.019 123.6 -999 158 9.9
2011-10-24 10:56:39 51°13.637 2°56.019 123.6 0.1 145 9.9
2011-10-24 10:57:39 51°13.638 2°56.019 123.7 -999 202 9.9
2011-10-24 10:58:39 51°13.638 2°56.018 123.8 -999 231 9.9
2011-10-24 10:59:39 51°13.638 2°56.019 123.9 -999 279 10.1
2011-10-24 11:00:39 51°13.638 2°56.019 123.9 -999 189 9.8
2011-10-24 11:01:39 51°13.638 2°56.019 123.9 -999 126 9.8
2011-10-24 11:02:39 51°13.638 2°56.019 124.1 -999 247 9.8
2011-10-24 11:03:39 51°13.638 2°56.019 124.1 -999 84 10
2011-10-24 11:04:39 51°13.639 2°56.018 124.2 -999 106 9.9
2011-10-24 11:05:39 51°13.637 2°56.018 124.2 -999 160 9.9
2011-10-24 11:06:39 51°13.637 2°56.019 124.2 -999 27 9.8
2011-10-24 11:07:39 51°13.637 2°56.019 124.2 -999 192 9.8
2011-10-24 11:08:39 51°13.636 2°56.018 124.2 -999 300 9.9
2011-10-24 11:09:38 51°13.636 2°56.019 124.3 -999 179 10
2011-10-24 11:10:39 51°13.637 2°56.019 124.3 -999 225 10
2011-10-24 11:11:39 51°13.635 2°56.019 124.4 -999 151 10
2011-10-24 11:12:39 51°13.636 2°56.02 124.4 -999 133 9.8
2011-10-24 11:13:38 51°13.637 2°56.02 124.4 -999 80 9.8
2011-10-24 11:14:39 51°13.638 2°56.02 124.5 -999 102 9.8
2011-10-24 11:15:38 51°13.638 2°56.02 124.5 0.1 348 9.8
2011-10-24 11:16:39 51°13.637 2°56.02 124.6 -999 34 10
2011-10-24 11:17:39 51°13.636 2°56.02 124.6 -999 44 10
2011-10-24 11:18:39 51°13.636 2°56.02 124.6 -999 35 9.7
2011-10-24 11:19:39 51°13.636 2°56.02 124.6 -999 142 9.7
2011-10-24 11:20:39 51°13.636 2°56.02 124.8 -999 228 9.7
2011-10-24 11:21:39 51°13.636 2°56.02 124.8 -999 21 9.8
2011-10-24 11:22:39 51°13.636 2°56.019 124.9 -999 7 9.6
2011-10-24 11:23:39 51°13.636 2°56.02 124.9 -999 134 9.9
2011-10-24 11:24:39 51°13.635 2°56.019 124.9 -999 292 9.6
2011-10-24 11:25:39 51°13.636 2°56.02 124.9 -999 356 9.6
2011-10-24 11:26:39 51°13.636 2°56.019 124.9 -999 240 9.7
2011-10-24 11:27:39 51°13.636 2°56.02 125 -999 323 10
2011-10-24 11:28:39 51°13.636 2°56.019 124.8 -999 233 9.7
2011-10-24 11:29:39 51°13.637 2°56.02 124.8 -999 51 9.6
2011-10-24 11:30:39 51°13.637 2°56.02 124.9 0.1 244 9.6
2011-10-24 11:31:39 51°13.638 2°56.021 124.9 -999 224 9.7
2011-10-24 11:32:39 51°13.638 2°56.021 125 -999 2 9.6
2011-10-24 11:33:39 51°13.638 2°56.02 125.3 -999 21 9.6
2011-10-24 11:34:39 51°13.638 2°56.02 125.1 0.1 163 9.4
2011-10-24 11:35:39 51°13.637 2°56.02 126.4 -999 228 9.6
2011-10-24 11:36:38 51°13.636 2°56.019 126.5 -999 5 9.3
2011-10-24 11:37:39 51°13.635 2°56.019 117.5 0.1 174 9.3
2011-10-24 11:38:39 51°13.635 2°56.013 104.6 1 288 9.1
2011-10-24 11:39:42 51°13.646 2°55.958 95.5 1.8 287 -999
2011-10-24 11:40:41 51°13.652 2°55.941 118.9 2 302 12.9
2011-10-24 11:41:42 51°13.678 2°55.868 112.8 3.6 294 -999
2011-10-24 11:42:42 51°13.696 2°55.771 89.9 3.5 276 -999
2011-10-24 11:43:41 51°13.7 2°55.724 49.7 0.8 359 14.7
2011-10-24 11:44:39 51°13.728 2°55.717 346.3 3.2 340 13.6
2011-10-24 11:45:39 51°13.82 2°55.644 337.5 7.8 336 13.8
2011-10-24 11:46:39 51°13.95 2°55.556 336.9 4.4 336 13.3
2011-10-24 11:47:39 51°14.093 2°55.453 336.5 9.8 335 12.8
2011-10-24 11:48:42 51°14.246 2°55.322 332.3 10 330 12.7
2011-10-24 11:49:41 51°14.388 2°55.188 330.6 10.1 329 12.7
2011-10-24 11:50:39 51°14.528 2°55.055 328.1 10.2 326 13.2
2011-10-24 11:51:39 51°14.672 2°54.911 326 10.2 328 13.2
2011-10-24 11:52:39 51°14.813 2°54.766 321.5 9.9 326 12.7
2011-10-24 11:53:39 51°14.945 2°54.612 319.4 9.9 326 12.3
2011-10-24 11:54:39 51°15.063 2°54.467 310.6 6.8 316 11.9
2011-10-24 11:55:39 51°15.135 2°54.38 323.1 4.8 329 11.8
2011-10-24 11:56:39 51°15.192 2°54.316 315 3.9 324 11.9
2011-10-24 11:57:39 51°15.245 2°54.26 318.7 3.7 327 11.8
2011-10-24 11:58:39 51°15.298 2°54.212 320.9 3.5 330 11.7
2011-10-24 11:59:39 51°15.348 2°54.162 318.8 3.5 328 11.6
2011-10-24 12:00:39 51°15.396 2°54.112 313.1 3.4 324 11.9
2011-10-24 12:01:39 51°15.44 2°54.056 308.5 3.3 318 11.8
2011-10-24 12:02:39 51°15.482 2°53.997 309.4 3.4 318 12.2
2011-10-24 12:03:39 51°15.524 2°53.939 311 3.4 321 12.4
2011-10-24 12:04:39 51°15.567 2°53.881 306.3 3.3 317 12.5
2011-10-24 12:05:39 51°15.605 2°53.817 299.4 3.3 312 12.8
2011-10-24 12:06:39 51°15.642 2°53.752 301.1 3.3 312 13.3
2011-10-24 12:07:39 51°15.683 2°53.696 318.3 3.2 331 13.4
2011-10-24 12:08:39 51°15.732 2°53.681 359 2.8 4 12.8
2011-10-24 12:09:39 51°15.775 2°53.703 33.2 2.6 29 12.7
2011-10-24 12:10:39 51°15.808 2°53.757 71.6 3.2 60 12.5
2011-10-24 12:11:39 51°15.829 2°53.847 83.1 3.9 73 12.4
2011-10-24 12:12:39 51°15.861 2°53.945 61.1 4.2 53 12.2
2011-10-24 12:13:39 51°15.897 2°54.033 72 3.8 62 12.4
2011-10-24 12:14:39 51°15.926 2°54.119 74.3 3.6 62 12.3
2011-10-24 12:15:39 51°15.953 2°54.205 73.4 3.6 63 12.2
2011-10-24 12:16:39 51°15.984 2°54.289 65.8 3.8 55 12.2
2011-10-24 12:17:39 51°16.019 2°54.371 68.5 3.7 59 12.1
2011-10-24 12:18:39 51°16.051 2°54.454 68.6 3.6 57 12
2011-10-24 12:19:39 51°16.084 2°54.535 70.8 3.6 58 12.2
2011-10-24 12:20:39 51°16.113 2°54.617 74.1 3.5 62 12.2
2011-10-24 12:21:39 51°16.144 2°54.7 69.6 3.7 59 12.2
2011-10-24 12:22:39 51°16.173 2°54.783 72.1 3.6 60 12.3
2011-10-24 12:23:39 51°16.207 2°54.863 66.1 3.7 55 12.4
2011-10-24 12:24:39 51°16.241 2°54.943 69 3.6 58 12.3
2011-10-24 12:25:39 51°16.271 2°55.024 69.2 3.6 59 12.3
2011-10-24 12:26:39 51°16.303 2°55.105 68.3 3.6 57 12.3
2011-10-24 12:27:39 51°16.336 2°55.187 68.2 3.6 58 12.2
2011-10-24 12:28:39 51°16.369 2°55.267 67.2 3.6 57 12.2
2011-10-24 12:29:39 51°16.401 2°55.35 68.3 3.6 60 12.1
2011-10-24 12:30:39 51°16.432 2°55.433 68 3.7 58 11.9
2011-10-24 12:31:39 51°16.466 2°55.512 66.1 3.6 55 11.6
2011-10-24 12:32:39 51°16.499 2°55.593 66.1 3.6 57 11.7
2011-10-24 12:33:39 51°16.522 2°55.672 90.1 3 80 11.5
2011-10-24 12:34:39 51°16.511 2°55.736 131.1 2.4 122 11.5
2011-10-24 12:35:39 51°16.482 2°55.778 146.7 2.4 143 11.3
2011-10-24 12:36:39 51°16.45 2°55.818 141.4 2.4 138 11.3
2011-10-24 12:37:39 51°16.422 2°55.865 135.4 2.4 133 11.2
2011-10-24 12:38:39 51°16.395 2°55.916 134.7 2.5 129 11.3
2011-10-24 12:39:39 51°16.367 2°55.966 135.8 2.6 134 11.2
2011-10-24 12:40:39 51°16.337 2°56.014 138.5 2.5 136 11
2011-10-24 12:41:39 51°16.302 2°56.063 141.4 3.1 142 11.1
2011-10-24 12:42:39 51°16.254 2°56.079 182.6 3.2 187 11.1
2011-10-24 12:43:39 51°16.199 2°56.076 176.3 3.5 180 10.9
2011-10-24 12:44:39 51°16.142 2°56.067 192.4 3.5 202 11
2011-10-24 12:45:39 51°16.094 2°56.013 205.8 3.6 211 10.8
2011-10-24 12:46:39 51°16.041 2°55.961 211.6 3.9 219 10.9
2011-10-24 12:47:39 51°15.997 2°55.878 225.1 4.2 230 10.8
2011-10-24 12:48:39 51°15.95 2°55.795 224.6 4.3 229 10.8
2011-10-24 12:49:39 51°15.917 2°55.696 237.4 4.2 242 10.8
2011-10-24 12:50:39 51°15.879 2°55.605 227.3 3.9 234 10.7
2011-10-24 12:51:39 51°15.841 2°55.524 229.4 3.8 238 10.6
2011-10-24 12:52:39 51°15.808 2°55.438 228.9 3.7 235 10.6
2011-10-24 12:53:39 51°15.777 2°55.355 234.1 3.7 240 10.8
2011-10-24 12:54:39 51°15.747 2°55.27 238.2 3.8 244 10.6
2011-10-24 12:55:39 51°15.717 2°55.184 234.5 3.7 242 10.6
2011-10-24 12:56:39 51°15.685 2°55.1 231.9 3.7 239 10.6
2011-10-24 12:57:39 51°15.654 2°55.013 232.1 3.7 239 10.7
2011-10-24 12:58:39 51°15.625 2°54.925 237.7 3.8 243 10.5
2011-10-24 12:59:39 51°15.593 2°54.841 230.3 3.7 237 10.6
2011-10-24 13:00:39 51°15.561 2°54.755 233.3 3.8 240 10.5
2011-10-24 13:01:39 51°15.528 2°54.673 228.5 3.6 236 10.5
2011-10-24 13:02:39 51°15.494 2°54.603 222.8 3.2 232 10.4
2011-10-24 13:03:39 51°15.465 2°54.534 229.7 3.2 239 10.4
2011-10-24 13:04:39 51°15.437 2°54.461 229.5 3.2 237 10.4
2011-10-24 13:05:39 51°15.408 2°54.391 227.8 3.2 240 10.4
2011-10-24 13:06:39 51°15.382 2°54.317 231.1 3.2 240 10.4
2011-10-24 13:07:39 51°15.354 2°54.246 226.4 3.1 235 10.3
2011-10-24 13:08:39 51°15.324 2°54.173 227.4 3.3 237 10.9
2011-10-24 13:09:39 51°15.295 2°54.097 228.7 3.3 239 12.6
2011-10-24 13:10:39 51°15.267 2°54.018 231.8 3.4 241 10.1
2011-10-24 13:11:39 51°15.237 2°53.941 229.9 3.4 239 10.4
2011-10-24 13:12:39 51°15.21 2°53.861 234.7 3.4 243 10.5
2011-10-24 13:13:39 51°15.181 2°53.784 229.3 3.4 239 10.6
2011-10-24 13:14:39 51°15.151 2°53.708 226.8 3.4 236 10.8
2011-10-24 13:15:39 51°15.122 2°53.63 233.8 3.5 242 10.8
2011-10-24 13:16:39 51°15.095 2°53.55 228.9 3.4 237 10.6
2011-10-24 13:17:39 51°15.063 2°53.478 226.9 3.3 237 10.7
2011-10-24 13:18:39 51°15.033 2°53.401 231.1 3.5 239 10.7
2011-10-24 13:19:39 51°15.001 2°53.326 227.3 3.5 235 10.7
2011-10-24 13:20:39 51°14.969 2°53.247 232.3 3.6 240 10.7
2011-10-24 13:21:39 51°14.939 2°53.165 232.2 3.5 238 10.7
2011-10-24 13:22:39 51°14.907 2°53.086 227.8 3.5 237 10.6
2011-10-24 13:23:39 51°14.875 2°53.01 225.1 3.4 234 10.5
2011-10-24 13:24:39 51°14.844 2°52.932 232.9 3.5 241 10.5
2011-10-24 13:25:39 51°14.815 2°52.851 228.7 3.5 238 10.3
2011-10-24 13:26:39 51°14.784 2°52.773 229.7 3.5 238 10.4
2011-10-24 13:27:38 51°14.752 2°52.697 226.5 3.5 234 10.3
2011-10-24 13:28:39 51°14.72 2°52.618 234.9 3.6 243 10.2
2011-10-24 13:29:39 51°14.695 2°52.53 237.2 3.6 242 10
2011-10-24 13:30:39 51°14.666 2°52.447 233.3 3.6 240 10.2
2011-10-24 13:31:39 51°14.634 2°52.366 229.4 3.6 237 10.1
2011-10-24 13:32:39 51°14.603 2°52.285 232.3 3.6 238 10.1
2011-10-24 13:33:39 51°14.568 2°52.208 222.3 3.5 231 9.9
2011-10-24 13:34:39 51°14.536 2°52.129 234.6 3.7 243 9.8
2011-10-24 13:35:39 51°14.514 2°52.038 249.6 3.7 253 9.8
2011-10-24 13:36:39 51°14.494 2°51.944 241.4 3.7 248 9.7
2011-10-24 13:37:39 51°14.486 2°51.84 281.6 4.6 290 9.7
2011-10-24 13:38:39 51°14.554 2°51.796 16.1 5.2 22 10
2011-10-24 13:39:39 51°14.591 2°51.955 79.9 9.6 80 10
2011-10-24 13:40:39 51°14.625 2°52.238 78.5 11.3 78 9.7
2011-10-24 13:41:39 51°14.653 2°52.537 83 11.5 83 9.6
2011-10-24 13:42:39 51°14.68 2°52.838 81 11.5 81 9.3
2011-10-24 13:43:39 51°14.707 2°53.139 79.7 11.4 81 9.3
2011-10-24 13:44:39 51°14.729 2°53.44 82.6 11.4 83 9.4
2011-10-24 13:45:38 51°14.747 2°53.736 83.4 11.4 83 9.6
2011-10-24 13:46:39 51°14.758 2°54.043 90.4 11.3 92 9.7
2011-10-24 13:47:39 51°14.732 2°54.338 99.5 11.2 103 10.3
2011-10-24 13:48:39 51°14.675 2°54.62 107.7 11.1 111 10.7
2011-10-24 13:49:39 51°14.586 2°54.879 117.5 11.2 122 11.7
2011-10-24 13:50:39 51°14.451 2°55.08 139.5 11.3 142 10.8
2011-10-24 13:51:39 51°14.299 2°55.252 143.1 10.8 146 -999
2011-10-24 13:52:42 51°14.174 2°55.379 148.7 7.7 152 11
2011-10-24 13:53:42 51°14.06 2°55.464 153.2 7.5 157 11.1
2011-10-24 13:54:39 51°13.948 2°55.538 155 7.7 158 11.3
2011-10-24 13:55:38 51°13.839 2°55.616 151.9 2.6 154 11.4
2011-10-24 13:56:35 51°13.776 2°55.687 134.8 0.2 319 11.5
2011-10-24 13:57:42 51°13.718 2°55.785 128.1 4.7 130 -999
2011-10-24 13:58:42 51°13.67 2°55.881 123.9 4.2 126 -999
2011-10-24 13:59:42 51°13.643 2°55.96 105.8 3.3 108 -999
2011-10-24 14:00:42 51°13.638 2°56.012 110.1 0.6 92 -999